createdAt,value
2023-03-16T00:00:13.609Z,14.73
2023-03-16T00:02:44.117Z,14.65
2023-03-16T00:05:12.955Z,15.80
2023-03-16T00:07:41.821Z,15.10
2023-03-16T00:10:12.232Z,15.38
2023-03-16T00:12:39.456Z,15.65
2023-03-16T00:15:06.729Z,14.73
2023-03-16T00:17:34.623Z,16.48
2023-03-16T00:20:03.121Z,16.02
2023-03-16T00:22:30.560Z,16.20
2023-03-16T00:24:58.301Z,15.90
2023-03-16T00:27:26.383Z,15.45
2023-03-16T00:29:57.405Z,16.05
2023-03-16T00:32:29.761Z,15.02
2023-03-16T00:34:56.732Z,15.50
2023-03-16T00:37:25.010Z,15.35
2023-03-16T00:39:52.565Z,15.93
2023-03-16T00:42:20.155Z,16.23
2023-03-16T00:44:47.064Z,16.95
2023-03-16T00:47:14.347Z,16.77
2023-03-16T00:49:43.153Z,16.58
2023-03-16T00:52:15.129Z,16.63
2023-03-16T00:54:43.409Z,16.17
2023-03-16T00:57:12.283Z,18.88
2023-03-16T00:59:39.040Z,16.83
2023-03-16T01:02:10.049Z,17.23
2023-03-16T01:04:37.411Z,17.40
2023-03-16T01:07:05.069Z,19.58
2023-03-16T01:09:36.723Z,16.45
2023-03-16T01:12:09.053Z,16.58
2023-03-16T01:14:36.586Z,16.63
2023-03-16T01:17:08.213Z,21.60
2023-03-16T01:19:36.392Z,17.48
2023-03-16T01:22:09.626Z,17.88
2023-03-16T01:24:37.000Z,17.27
2023-03-16T01:27:04.809Z,18.45
2023-03-16T01:29:32.958Z,18.55
2023-03-16T01:32:01.186Z,18.10
2023-03-16T01:34:28.488Z,17.85
2023-03-16T01:36:56.271Z,17.85
2023-03-16T01:39:29.814Z,16.80
2023-03-16T01:41:56.513Z,18.20
2023-03-16T01:44:30.338Z,18.48
2023-03-16T01:47:00.712Z,15.85
2023-03-16T01:49:32.720Z,15.60
2023-03-16T01:52:27.200Z,17.88
2023-03-16T01:55:08.665Z,15.82
2023-03-16T01:57:40.348Z,15.45
2023-03-16T02:00:23.403Z,15.65
2023-03-16T02:03:18.423Z,14.77
2023-03-16T02:06:01.835Z,15.30
2023-03-16T02:08:32.185Z,19.58
2023-03-16T02:10:59.353Z,15.50
2023-03-16T02:13:37.939Z,15.32
2023-03-16T02:16:08.196Z,13.93
2023-03-16T02:18:35.721Z,14.00
2023-03-16T02:21:19.234Z,16.13
2023-03-16T02:23:47.100Z,16.02
2023-03-16T02:26:35.922Z,15.38
2023-03-16T02:29:29.628Z,16.48
2023-03-16T02:31:58.101Z,18.60
2023-03-16T02:34:26.181Z,15.90
2023-03-16T02:36:53.710Z,16.33
2023-03-16T02:39:24.467Z,18.75
2023-03-16T02:41:51.134Z,16.30
2023-03-16T02:44:24.128Z,16.77
2023-03-16T02:46:56.121Z,15.60
2023-03-16T02:49:33.969Z,17.95
2023-03-16T02:52:00.610Z,17.17
2023-03-16T02:54:27.341Z,17.17
2023-03-16T02:56:54.174Z,17.20
2023-03-16T02:59:21.656Z,17.35
2023-03-16T03:01:51.515Z,20.88
2023-03-16T03:04:18.393Z,18.50
2023-03-16T03:06:45.152Z,19.13
2023-03-16T03:09:12.180Z,22.73
2023-03-16T03:11:39.884Z,18.17
2023-03-16T03:14:06.663Z,18.63
2023-03-16T03:16:34.395Z,19.55
2023-03-16T03:19:01.247Z,22.50
2023-03-16T03:21:30.410Z,18.52
2023-03-16T03:23:57.201Z,20.42
2023-03-16T03:26:24.729Z,19.20
2023-03-16T03:28:52.507Z,18.33
2023-03-16T03:31:22.011Z,18.60
2023-03-16T03:33:49.529Z,18.42
2023-03-16T03:36:16.693Z,18.45
2023-03-16T03:38:44.745Z,18.15
2023-03-16T03:41:12.654Z,20.10
2023-03-16T03:43:39.642Z,20.98
2023-03-16T03:46:10.593Z,19.42
2023-03-16T03:48:37.311Z,20.98
2023-03-16T03:51:05.418Z,19.10
2023-03-16T03:53:55.062Z,18.58
2023-03-16T03:56:36.434Z,19.38
2023-03-16T03:59:05.092Z,18.58
2023-03-16T04:01:58.229Z,20.10
2023-03-16T04:04:29.886Z,19.67
2023-03-16T04:06:56.567Z,20.13
2023-03-16T04:09:23.765Z,20.10
2023-03-16T04:11:50.809Z,19.50
2023-03-16T04:14:17.518Z,19.80
2023-03-16T04:16:44.587Z,20.85
2023-03-16T04:19:13.210Z,19.92
2023-03-16T04:21:40.633Z,19.83
2023-03-16T04:24:07.574Z,19.17
2023-03-16T04:26:36.207Z,19.75
2023-03-16T04:29:04.168Z,19.88
2023-03-16T04:31:32.374Z,20.02
2023-03-16T04:33:59.394Z,21.67
2023-03-16T04:36:26.094Z,19.63
2023-03-16T04:38:53.804Z,19.40
2023-03-16T04:41:20.564Z,21.55
2023-03-16T04:43:55.206Z,19.90
2023-03-16T04:46:24.993Z,18.83
2023-03-16T04:48:51.989Z,20.25
2023-03-16T04:51:18.713Z,19.40
2023-03-16T04:53:59.264Z,18.88
2023-03-16T04:56:33.824Z,19.25
2023-03-16T04:59:04.800Z,20.25
2023-03-16T05:01:43.410Z,19.88
2023-03-16T05:04:15.036Z,21.58
2023-03-16T05:06:45.843Z,20.08
2023-03-16T05:09:13.846Z,19.00
2023-03-16T05:11:40.712Z,20.63
2023-03-16T05:14:10.165Z,20.90
2023-03-16T05:16:49.803Z,20.73
2023-03-16T05:19:16.497Z,20.35
2023-03-16T05:21:45.606Z,26.65
2023-03-16T05:24:12.688Z,21.33
2023-03-16T05:26:39.646Z,22.83
2023-03-16T05:29:10.315Z,20.92
2023-03-16T05:31:38.334Z,21.13
2023-03-16T05:34:10.664Z,24.15
2023-03-16T05:36:37.398Z,23.15
2023-03-16T05:39:08.790Z,22.65
2023-03-16T05:41:39.277Z,23.13
2023-03-16T05:44:13.498Z,25.52
2023-03-16T05:46:57.153Z,23.20
2023-03-16T05:49:23.898Z,28.52
2023-03-16T05:51:50.766Z,29.15
2023-03-16T05:54:17.583Z,27.10
2023-03-16T05:56:46.042Z,25.90
2023-03-16T05:59:13.083Z,28.27
2023-03-16T06:01:40.162Z,27.40
2023-03-16T06:04:07.266Z,25.38
2023-03-16T06:06:37.122Z,29.13
2023-03-16T06:09:15.021Z,30.30
2023-03-16T06:11:42.233Z,27.27
2023-03-16T06:14:09.090Z,28.77
2023-03-16T06:16:36.785Z,32.00
2023-03-16T06:19:03.517Z,30.58
2023-03-16T06:21:32.138Z,29.88
2023-03-16T06:24:05.157Z,29.77
2023-03-16T06:26:31.889Z,30.45
2023-03-16T06:28:59.584Z,29.40
2023-03-16T06:31:26.297Z,28.48
2023-03-16T06:33:53.040Z,29.63
2023-03-16T06:36:19.723Z,30.20
2023-03-16T06:38:51.697Z,27.75
2023-03-16T06:41:24.675Z,29.83
2023-03-16T06:43:51.537Z,28.52
2023-03-16T06:46:18.215Z,25.48
2023-03-16T06:48:47.180Z,27.20
2023-03-16T06:51:16.290Z,26.33
2023-03-16T06:53:44.638Z,27.50
2023-03-16T06:56:11.687Z,26.00
2023-03-16T06:58:41.639Z,27.98
2023-03-16T07:01:08.396Z,26.95
2023-03-16T07:03:35.313Z,27.45
2023-03-16T07:06:09.432Z,27.13
2023-03-16T07:08:36.208Z,26.63
2023-03-16T07:11:03.391Z,27.38
2023-03-16T07:13:30.391Z,28.50
2023-03-16T07:15:57.432Z,28.08
2023-03-16T07:18:26.073Z,31.35
2023-03-16T07:20:54.533Z,34.38
2023-03-16T07:23:24.749Z,31.13
2023-03-16T07:25:53.133Z,31.85
2023-03-16T07:28:20.599Z,31.75
2023-03-16T07:31:02.428Z,33.08
2023-03-16T07:33:33.003Z,34.63
2023-03-16T07:36:05.549Z,37.05
2023-03-16T07:38:36.252Z,35.90
2023-03-16T07:41:03.890Z,34.78
2023-03-16T07:43:30.605Z,34.22
2023-03-16T07:45:57.327Z,36.17
2023-03-16T07:48:25.888Z,35.08
2023-03-16T07:50:56.509Z,36.03
2023-03-16T07:53:24.537Z,37.53
2023-03-16T07:56:02.141Z,35.13
2023-03-16T07:58:31.942Z,35.10
2023-03-16T08:00:59.859Z,35.72
2023-03-16T08:03:27.349Z,39.40
2023-03-16T08:05:55.126Z,35.90
2023-03-16T08:08:22.900Z,41.33
2023-03-16T08:10:56.552Z,39.42
2023-03-16T08:13:30.026Z,40.13
2023-03-16T08:16:01.919Z,39.13
2023-03-16T08:18:38.132Z,41.47
2023-03-16T08:21:06.556Z,40.55
2023-03-16T08:23:33.808Z,41.38
2023-03-16T08:26:01.034Z,39.15
2023-03-16T08:28:27.931Z,40.25
2023-03-16T08:30:56.033Z,44.75
2023-03-16T08:33:44.316Z,47.42
2023-03-16T08:36:14.120Z,41.70
2023-03-16T08:38:45.351Z,39.55
2023-03-16T08:41:17.192Z,40.13
2023-03-16T08:43:46.637Z,42.67
2023-03-16T08:46:14.278Z,39.30
2023-03-16T08:49:14.246Z,42.03
2023-03-16T08:51:44.465Z,43.03
2023-03-16T08:54:12.079Z,43.22
2023-03-16T08:56:38.759Z,40.17
2023-03-16T08:59:05.654Z,43.63
2023-03-16T09:01:32.437Z,43.78
2023-03-16T09:04:00.457Z,42.15
2023-03-16T09:06:27.605Z,47.88
2023-03-16T09:08:55.952Z,44.15
2023-03-16T09:11:23.269Z,43.33
2023-03-16T09:13:52.737Z,46.25
2023-03-16T09:16:19.973Z,40.90
2023-03-16T09:18:47.774Z,40.35
2023-03-16T09:21:14.953Z,40.20
2023-03-16T09:23:42.931Z,37.78
2023-03-16T09:26:12.297Z,41.92
2023-03-16T09:28:41.918Z,39.53
2023-03-16T09:31:15.081Z,40.10
2023-03-16T09:33:41.848Z,41.08
2023-03-16T09:36:11.334Z,44.88
2023-03-16T09:38:38.439Z,40.55
2023-03-16T09:41:16.958Z,40.70
2023-03-16T09:43:49.604Z,44.50
2023-03-16T09:46:27.686Z,39.80
2023-03-16T09:48:56.518Z,36.47
2023-03-16T09:51:40.341Z,36.05
2023-03-16T09:54:34.229Z,36.42
2023-03-16T09:57:01.834Z,42.17
2023-03-16T09:59:28.576Z,34.30
2023-03-16T10:02:27.096Z,36.08
2023-03-16T10:05:10.839Z,36.67
2023-03-16T10:07:52.620Z,35.67
2023-03-16T10:10:31.108Z,35.60
2023-03-16T10:13:00.954Z,36.78
2023-03-16T10:15:31.186Z,50.20
2023-03-16T10:18:24.695Z,47.83
2023-03-16T10:20:55.236Z,51.15
2023-03-16T10:23:24.576Z,52.15
2023-03-16T10:25:54.058Z,49.13
2023-03-16T10:28:26.296Z,43.97
2023-03-16T10:30:55.431Z,44.28
2023-03-16T10:33:28.845Z,43.60
2023-03-16T10:36:11.324Z,43.70
2023-03-16T10:38:38.725Z,42.78
2023-03-16T10:41:27.832Z,41.92
2023-03-16T10:43:55.527Z,43.60
2023-03-16T10:46:24.815Z,43.70
2023-03-16T10:49:01.049Z,48.17
2023-03-16T10:51:38.047Z,45.63
2023-03-16T10:54:14.090Z,46.10
2023-03-16T10:56:40.753Z,47.08
2023-03-16T10:59:34.445Z,44.38
2023-03-16T11:02:16.750Z,46.10
2023-03-16T11:04:43.525Z,47.70
2023-03-16T11:07:20.592Z,48.60
2023-03-16T11:09:50.780Z,46.03
2023-03-16T11:12:36.542Z,44.78
2023-03-16T11:15:09.372Z,44.78
2023-03-16T11:17:49.587Z,45.05
2023-03-16T11:20:20.329Z,45.95
2023-03-16T11:22:48.349Z,46.90
2023-03-16T11:25:41.245Z,45.80
2023-03-16T11:28:12.772Z,47.20
2023-03-16T11:30:59.169Z,41.90
2023-03-16T11:33:27.094Z,45.60
2023-03-16T11:36:17.218Z,46.20
2023-03-16T11:39:04.551Z,45.33
2023-03-16T11:41:41.039Z,43.90
2023-03-16T11:44:13.618Z,45.05
2023-03-16T11:46:51.604Z,44.90
2023-03-16T11:49:42.089Z,45.83
2023-03-16T11:52:11.501Z,44.45
2023-03-16T11:55:09.025Z,46.08
2023-03-16T11:57:41.413Z,42.28
2023-03-16T12:00:22.558Z,45.47
2023-03-16T12:02:55.253Z,44.70
2023-03-16T12:05:45.002Z,45.53
2023-03-16T12:08:20.609Z,52.53
2023-03-16T12:11:23.163Z,47.17
2023-03-16T12:14:15.492Z,47.13
2023-03-16T12:17:04.599Z,47.80
2023-03-16T12:19:51.960Z,45.08
2023-03-16T12:22:21.405Z,45.25
2023-03-16T12:24:48.585Z,45.55
2023-03-16T12:27:22.476Z,43.45
2023-03-16T12:30:04.729Z,44.33
2023-03-16T12:32:53.386Z,47.17
2023-03-16T12:35:42.083Z,45.17
2023-03-16T12:38:22.740Z,46.15
2023-03-16T12:41:26.890Z,43.55
2023-03-16T12:44:18.967Z,44.03
2023-03-16T12:46:57.670Z,43.97
2023-03-16T12:49:25.109Z,44.28
2023-03-16T12:52:08.533Z,42.38
2023-03-16T12:54:36.716Z,44.30
2023-03-16T12:57:08.979Z,43.88
2023-03-16T12:59:42.930Z,42.88
2023-03-16T13:02:26.416Z,39.17
2023-03-16T13:05:09.928Z,39.97
2023-03-16T13:07:38.826Z,41.97
2023-03-16T13:10:13.769Z,39.80
2023-03-16T13:15:20.049Z,37.50
2023-03-16T13:17:50.795Z,38.40
2023-03-16T13:20:31.192Z,38.80
2023-03-16T13:23:10.346Z,39.65
2023-03-16T13:25:43.285Z,37.78
2023-03-16T13:28:15.444Z,39.97
2023-03-16T13:30:49.497Z,37.95
2023-03-16T13:33:26.182Z,37.95
2023-03-16T13:35:55.891Z,41.13
2023-03-16T13:38:27.572Z,38.70
2023-03-16T13:40:58.278Z,39.78
2023-03-16T13:43:31.576Z,40.03
2023-03-16T13:45:58.647Z,38.88
2023-03-16T13:48:25.763Z,39.20
2023-03-16T13:50:59.834Z,38.15
2023-03-16T13:53:32.717Z,40.07
2023-03-16T13:56:02.067Z,39.50
2023-03-16T13:58:33.648Z,39.13
2023-03-16T14:01:04.089Z,38.95
2023-03-16T14:03:33.973Z,40.00
2023-03-16T14:06:01.713Z,39.15
2023-03-16T14:08:29.802Z,37.28
2023-03-16T14:11:00.931Z,40.42
2023-03-16T14:13:27.897Z,37.75
2023-03-16T14:15:56.370Z,36.92
2023-03-16T14:18:26.709Z,36.45
2023-03-16T14:20:55.355Z,38.63
2023-03-16T14:23:30.926Z,38.40
2023-03-16T14:25:57.866Z,40.67
2023-03-16T14:28:32.412Z,37.65
2023-03-16T14:31:10.999Z,37.13
2023-03-16T14:33:41.876Z,36.83
2023-03-16T14:36:17.482Z,37.30
2023-03-16T14:38:48.093Z,37.17
2023-03-16T14:41:26.219Z,37.85
2023-03-16T14:43:58.944Z,38.47
2023-03-16T14:46:37.795Z,41.85
2023-03-16T14:49:27.974Z,41.00
2023-03-16T14:52:09.189Z,42.20
2023-03-16T14:54:36.666Z,41.45
2023-03-16T14:57:08.108Z,46.50
2023-03-16T14:59:34.928Z,42.17
2023-03-16T15:02:04.093Z,41.88
2023-03-16T15:04:34.588Z,43.80
2023-03-16T15:07:06.884Z,44.10
2023-03-16T15:09:39.495Z,44.92
2023-03-16T15:12:25.990Z,43.47
2023-03-16T15:15:11.592Z,42.83
2023-03-16T15:17:38.773Z,48.92
2023-03-16T15:20:07.170Z,40.30
2023-03-16T15:22:39.107Z,41.85
2023-03-16T15:25:20.222Z,42.65
2023-03-16T15:27:47.930Z,47.85
2023-03-16T15:30:28.920Z,49.13
2023-03-16T15:32:56.573Z,44.65
2023-03-16T15:35:23.377Z,39.65
2023-03-16T15:37:50.131Z,40.15
2023-03-16T15:40:24.216Z,39.25
2023-03-16T15:42:51.509Z,42.42
2023-03-16T15:45:21.352Z,43.60
2023-03-16T15:47:49.541Z,34.20
2023-03-16T15:50:18.524Z,42.20
2023-03-16T15:52:58.081Z,42.08
2023-03-16T15:55:33.080Z,39.63
2023-03-16T15:58:02.321Z,41.53
2023-03-16T16:00:34.545Z,40.63
2023-03-16T16:03:02.772Z,41.80
2023-03-16T16:05:30.787Z,41.35
2023-03-16T16:07:58.214Z,40.28
2023-03-16T16:10:26.812Z,42.10
2023-03-16T16:12:55.682Z,37.55
2023-03-16T16:15:33.676Z,36.92
2023-03-16T16:18:20.429Z,35.50
2023-03-16T16:20:49.070Z,38.10
2023-03-16T16:23:15.713Z,37.20
2023-03-16T16:25:42.727Z,37.92
2023-03-16T16:28:22.896Z,38.35
2023-03-16T16:30:50.490Z,39.83
2023-03-16T16:33:34.348Z,42.40
2023-03-16T16:36:03.593Z,36.95
2023-03-16T16:38:31.835Z,33.58
2023-03-16T16:41:01.585Z,32.88
2023-03-16T16:43:52.744Z,33.53
2023-03-16T16:46:23.571Z,31.20
2023-03-16T16:48:58.650Z,31.52
2023-03-16T16:51:27.633Z,31.83
2023-03-16T16:53:56.788Z,35.75
2023-03-16T16:56:30.123Z,33.47
2023-03-16T16:58:58.182Z,35.05
2023-03-16T17:01:34.391Z,36.95
2023-03-16T17:04:02.613Z,36.70
2023-03-16T17:06:29.880Z,32.35
2023-03-16T17:08:56.521Z,36.20
2023-03-16T17:11:24.973Z,36.30
2023-03-16T17:13:53.744Z,36.45
2023-03-16T17:16:26.539Z,35.97
2023-03-16T17:18:54.167Z,34.00
2023-03-16T17:21:23.655Z,25.17
2023-03-16T17:23:52.659Z,25.30
2023-03-16T17:26:27.825Z,25.20
2023-03-16T17:28:57.297Z,25.42
2023-03-16T17:31:27.002Z,26.33
2023-03-16T17:33:55.070Z,24.30
2023-03-16T17:36:22.648Z,25.85
2023-03-16T17:38:50.023Z,25.75
2023-03-16T17:41:24.841Z,43.80
2023-03-16T17:43:56.523Z,25.45
2023-03-16T17:46:26.402Z,41.63
2023-03-16T17:48:55.441Z,26.52
2023-03-16T17:51:25.375Z,31.38
2023-03-16T17:53:52.820Z,27.02
2023-03-16T17:56:27.612Z,27.52
2023-03-16T17:58:57.251Z,30.85
2023-03-16T18:01:35.013Z,24.67
2023-03-16T18:04:02.654Z,29.17
2023-03-16T18:06:31.096Z,38.42
2023-03-16T18:08:57.918Z,26.33
2023-03-16T18:11:33.983Z,28.55
2023-03-16T18:14:01.282Z,28.50
2023-03-16T18:16:28.167Z,35.25
2023-03-16T18:18:58.935Z,23.83
2023-03-16T18:21:26.552Z,26.63
2023-03-16T18:23:53.982Z,26.52
2023-03-16T18:26:22.129Z,25.48
2023-03-16T18:28:48.780Z,25.77
2023-03-16T18:31:21.527Z,25.58
2023-03-16T18:33:54.808Z,24.83
2023-03-16T18:36:29.740Z,27.73
2023-03-16T18:38:58.548Z,23.95
2023-03-16T18:41:28.180Z,25.48
2023-03-16T18:43:57.164Z,28.52
2023-03-16T18:46:26.873Z,36.63
2023-03-16T18:48:56.761Z,29.27
2023-03-16T18:51:24.137Z,25.48
2023-03-16T18:53:51.238Z,32.20
2023-03-16T18:56:21.152Z,40.45
2023-03-16T18:58:49.473Z,30.13
2023-03-16T19:01:23.791Z,43.35
2023-03-16T19:03:52.356Z,44.33
2023-03-16T19:06:25.059Z,26.15
2023-03-16T19:08:52.228Z,25.38
2023-03-16T19:11:19.295Z,45.33
2023-03-16T19:13:46.116Z,35.58
2023-03-16T19:16:22.694Z,47.90
2023-03-16T19:18:49.821Z,50.95
2023-03-16T19:21:19.289Z,31.98
2023-03-16T19:23:53.558Z,41.67
2023-03-16T19:26:20.256Z,37.08
2023-03-16T19:28:47.164Z,40.78
2023-03-16T19:31:16.533Z,33.38
2023-03-16T19:33:43.247Z,32.05
2023-03-16T19:36:25.486Z,27.15
2023-03-16T19:38:52.632Z,24.80
2023-03-16T19:41:34.288Z,24.33
2023-03-16T19:44:08.177Z,27.52
2023-03-16T19:46:34.942Z,28.88
2023-03-16T19:49:01.566Z,28.00
2023-03-16T19:51:29.192Z,25.67
2023-03-16T19:53:56.078Z,26.88
2023-03-16T19:56:24.940Z,27.85
2023-03-16T19:58:54.319Z,28.35
2023-03-16T20:01:25.053Z,25.83
2023-03-16T20:03:53.196Z,25.40
2023-03-16T20:06:22.233Z,25.33
2023-03-16T20:08:50.375Z,24.23
2023-03-16T20:11:21.289Z,25.27
2023-03-16T20:13:48.375Z,27.88
2023-03-16T20:16:26.634Z,26.88
2023-03-16T20:18:56.157Z,27.23
2023-03-16T20:21:22.885Z,24.95
2023-03-16T20:23:49.844Z,24.98
2023-03-16T20:26:20.892Z,29.20
2023-03-16T20:28:48.872Z,25.00
2023-03-16T20:31:18.683Z,23.65
2023-03-16T20:33:46.002Z,26.70
2023-03-16T20:36:13.231Z,26.63
2023-03-16T20:38:40.082Z,27.40
2023-03-16T20:41:14.206Z,25.35
2023-03-16T20:43:41.482Z,28.15
2023-03-16T20:46:16.140Z,24.75
2023-03-16T20:51:15.265Z,23.98
2023-03-16T20:53:46.461Z,37.92
2023-03-16T20:56:18.432Z,27.67
2023-03-16T20:58:47.729Z,38.75
2023-03-16T21:01:18.316Z,40.45
2023-03-16T21:03:47.534Z,36.28
2023-03-16T21:06:23.527Z,32.35
2023-03-16T21:08:51.924Z,33.42
2023-03-16T21:11:22.342Z,28.70
2023-03-16T21:13:49.454Z,26.50
2023-03-16T21:16:16.586Z,25.88
2023-03-16T21:18:43.268Z,28.20
2023-03-16T21:21:15.491Z,26.80
2023-03-16T21:23:42.344Z,25.55
2023-03-16T21:26:15.968Z,25.85
2023-03-16T21:28:43.820Z,26.35
2023-03-16T21:31:19.345Z,25.80
2023-03-16T21:33:46.443Z,24.90
2023-03-16T21:36:19.910Z,25.30
2023-03-16T21:38:47.173Z,28.20
2023-03-16T21:41:14.799Z,26.10
2023-03-16T21:43:42.928Z,26.83
2023-03-16T21:46:18.243Z,25.70
2023-03-16T21:48:49.425Z,25.08
2023-03-16T21:51:20.809Z,27.27
2023-03-16T21:53:49.170Z,24.88
2023-03-16T21:56:18.574Z,25.25
2023-03-16T21:58:47.022Z,26.08
2023-03-16T22:01:26.004Z,25.08
2023-03-16T22:03:55.340Z,32.08
2023-03-16T22:06:23.414Z,26.58
2023-03-16T22:08:51.289Z,26.00
2023-03-16T22:11:23.882Z,24.95
2023-03-16T22:13:51.852Z,24.60
2023-03-16T22:16:21.641Z,25.58
2023-03-16T22:18:51.858Z,23.00
2023-03-16T22:21:40.138Z,23.50
2023-03-16T22:24:17.767Z,23.92
2023-03-16T22:26:46.110Z,22.85
2023-03-16T22:29:31.511Z,22.73
2023-03-16T22:32:02.852Z,24.05
2023-03-16T22:34:29.481Z,23.63
2023-03-16T22:36:57.362Z,23.90
2023-03-16T22:39:24.228Z,25.33
2023-03-16T22:41:51.820Z,23.98
2023-03-16T22:44:22.705Z,25.80
2023-03-16T22:46:50.638Z,24.90
2023-03-16T22:49:27.758Z,25.55
2023-03-16T22:51:57.194Z,24.60
2023-03-16T22:54:27.097Z,26.45
2023-03-16T22:56:54.158Z,23.52
2023-03-16T22:59:24.378Z,23.52
2023-03-16T23:01:51.538Z,24.55
2023-03-16T23:04:24.389Z,23.85
2023-03-16T23:06:53.329Z,23.08
2023-03-16T23:09:21.717Z,23.40
2023-03-16T23:11:53.624Z,23.65
2023-03-16T23:14:27.166Z,23.67
2023-03-16T23:16:53.956Z,23.17
2023-03-16T23:19:25.094Z,23.52
2023-03-16T23:21:54.777Z,23.30
2023-03-16T23:24:22.288Z,24.27
2023-03-16T23:26:50.229Z,23.33
2023-03-16T23:29:16.957Z,22.98
2023-03-16T23:31:43.974Z,23.00
2023-03-16T23:34:16.822Z,23.13
2023-03-16T23:36:44.516Z,23.23
2023-03-16T23:39:12.008Z,23.02
2023-03-16T23:41:41.788Z,23.20
2023-03-16T23:44:10.501Z,23.08
2023-03-16T23:46:37.253Z,23.50
2023-03-16T23:49:04.873Z,24.17
2023-03-16T23:51:36.591Z,24.30
2023-03-16T23:54:21.020Z,23.35
2023-03-16T23:56:47.930Z,23.37
2023-03-16T23:59:14.682Z,23.90
